sensor_id;sensor_type;location;lat;lon;timestamp;P1;durP1;ratioP1;P2;durP2;ratioP2
31390;SDS011;18022;45.492;11.548;2022-07-03T00:01:22;6.18;;;3.78;;
31390;SDS011;18022;45.492;11.548;2022-07-03T00:03:48;6.65;;;3.03;;
31390;SDS011;18022;45.492;11.548;2022-07-03T00:06:14;6.93;;;3.28;;
31390;SDS011;18022;45.492;11.548;2022-07-03T00:08:40;6.28;;;2.92;;
31390;SDS011;18022;45.492;11.548;2022-07-03T00:11:07;10.07;;;3.58;;
31390;SDS011;18022;45.492;11.548;2022-07-03T00:13:34;6.22;;;3.70;;
31390;SDS011;18022;45.492;11.548;2022-07-03T00:16:00;7.90;;;3.20;;
31390;SDS011;18022;45.492;11.548;2022-07-03T00:18:25;6.30;;;3.22;;
31390;SDS011;18022;45.492;11.548;2022-07-03T00:21:11;10.52;;;3.75;;
31390;SDS011;18022;45.492;11.548;2022-07-03T00:23:45;6.00;;;2.95;;
31390;SDS011;18022;45.492;11.548;2022-07-03T00:26:16;7.15;;;3.33;;
31390;SDS011;18022;45.492;11.548;2022-07-03T00:28:44;4.95;;;3.03;;
31390;SDS011;18022;45.492;11.548;2022-07-03T00:31:11;7.80;;;3.10;;
31390;SDS011;18022;45.492;11.548;2022-07-03T00:33:37;7.97;;;3.20;;
31390;SDS011;18022;45.492;11.548;2022-07-03T00:36:04;7.68;;;3.00;;
31390;SDS011;18022;45.492;11.548;2022-07-03T00:38:30;4.65;;;2.97;;
31390;SDS011;18022;45.492;11.548;2022-07-03T00:40:56;10.75;;;3.17;;
31390;SDS011;18022;45.492;11.548;2022-07-03T00:43:22;6.60;;;3.03;;
31390;SDS011;18022;45.492;11.548;2022-07-03T00:45:51;6.90;;;3.08;;
31390;SDS011;18022;45.492;11.548;2022-07-03T00:48:19;5.53;;;3.22;;
31390;SDS011;18022;45.492;11.548;2022-07-03T00:50:51;11.52;;;3.42;;
31390;SDS011;18022;45.492;11.548;2022-07-03T00:53:18;4.68;;;2.78;;
31390;SDS011;18022;45.492;11.548;2022-07-03T00:55:51;4.10;;;3.00;;
31390;SDS011;18022;45.492;11.548;2022-07-03T00:58:17;6.90;;;3.33;;
31390;SDS011;18022;45.492;11.548;2022-07-03T01:00:44;7.65;;;2.88;;
31390;SDS011;18022;45.492;11.548;2022-07-03T01:03:14;5.60;;;3.10;;
31390;SDS011;18022;45.492;11.548;2022-07-03T01:05:45;7.82;;;3.00;;
31390;SDS011;18022;45.492;11.548;2022-07-03T01:16:37;9.05;;;3.00;;
31390;SDS011;18022;45.492;11.548;2022-07-03T01:28:04;5.70;;;3.15;;
31390;SDS011;18022;45.492;11.548;2022-07-03T01:30:35;9.30;;;3.33;;
31390;SDS011;18022;45.492;11.548;2022-07-03T01:33:10;6.93;;;3.03;;
31390;SDS011;18022;45.492;11.548;2022-07-03T01:35:41;5.78;;;3.13;;
31390;SDS011;18022;45.492;11.548;2022-07-03T01:38:19;6.75;;;3.20;;
31390;SDS011;18022;45.492;11.548;2022-07-03T01:40:46;6.30;;;3.25;;
31390;SDS011;18022;45.492;11.548;2022-07-03T01:43:16;4.38;;;3.40;;
31390;SDS011;18022;45.492;11.548;2022-07-03T01:45:47;5.88;;;3.70;;
31390;SDS011;18022;45.492;11.548;2022-07-03T01:48:13;7.30;;;3.40;;
31390;SDS011;18022;45.492;11.548;2022-07-03T01:50:40;7.60;;;3.33;;
31390;SDS011;18022;45.492;11.548;2022-07-03T01:55:34;4.75;;;3.30;;
31390;SDS011;18022;45.492;11.548;2022-07-03T01:58:05;7.88;;;2.90;;
31390;SDS011;18022;45.492;11.548;2022-07-03T02:00:32;6.03;;;2.95;;
31390;SDS011;18022;45.492;11.548;2022-07-03T02:03:06;4.13;;;2.80;;
31390;SDS011;18022;45.492;11.548;2022-07-03T02:05:41;7.40;;;3.25;;
31390;SDS011;18022;45.492;11.548;2022-07-03T02:17:24;12.23;;;3.55;;
31390;SDS011;18022;45.492;11.548;2022-07-03T02:20:09;5.20;;;3.70;;
31390;SDS011;18022;45.492;11.548;2022-07-03T02:22:16;6.80;;;4.03;;
31390;SDS011;18022;45.492;11.548;2022-07-03T02:24:45;9.32;;;3.42;;
31390;SDS011;18022;45.492;11.548;2022-07-03T02:27:15;4.93;;;3.28;;
31390;SDS011;18022;45.492;11.548;2022-07-03T02:29:52;7.45;;;3.40;;
31390;SDS011;18022;45.492;11.548;2022-07-03T02:32:21;7.47;;;3.40;;
31390;SDS011;18022;45.492;11.548;2022-07-03T02:34:49;6.85;;;3.03;;
31390;SDS011;18022;45.492;11.548;2022-07-03T02:37:23;7.50;;;3.30;;
31390;SDS011;18022;45.492;11.548;2022-07-03T02:39:57;6.75;;;3.85;;
31390;SDS011;18022;45.492;11.548;2022-07-03T02:45:21;4.30;;;3.50;;
31390;SDS011;18022;45.492;11.548;2022-07-03T02:50:25;9.60;;;3.47;;
31390;SDS011;18022;45.492;11.548;2022-07-03T02:52:59;7.68;;;3.30;;
31390;SDS011;18022;45.492;11.548;2022-07-03T02:55:42;10.88;;;3.75;;
31390;SDS011;18022;45.492;11.548;2022-07-03T02:58:27;6.05;;;3.15;;
31390;SDS011;18022;45.492;11.548;2022-07-03T03:01:06;6.20;;;3.45;;
31390;SDS011;18022;45.492;11.548;2022-07-03T03:03:39;7.13;;;3.38;;
31390;SDS011;18022;45.492;11.548;2022-07-03T03:06:15;7.63;;;3.35;;
31390;SDS011;18022;45.492;11.548;2022-07-03T03:08:47;7.35;;;3.97;;
31390;SDS011;18022;45.492;11.548;2022-07-03T03:12:00;4.30;;;2.97;;
31390;SDS011;18022;45.492;11.548;2022-07-03T03:14:08;7.35;;;3.20;;
31390;SDS011;18022;45.492;11.548;2022-07-03T03:16:41;3.88;;;3.30;;
31390;SDS011;18022;45.492;11.548;2022-07-03T03:19:12;6.80;;;3.55;;
31390;SDS011;18022;45.492;11.548;2022-07-03T03:21:42;4.70;;;3.50;;
31390;SDS011;18022;45.492;11.548;2022-07-03T03:24:15;4.78;;;3.53;;
31390;SDS011;18022;45.492;11.548;2022-07-03T03:26:42;5.72;;;3.60;;
31390;SDS011;18022;45.492;11.548;2022-07-03T03:29:08;7.05;;;3.35;;
31390;SDS011;18022;45.492;11.548;2022-07-03T03:31:34;8.40;;;3.47;;
31390;SDS011;18022;45.492;11.548;2022-07-03T03:34:00;6.88;;;3.65;;
31390;SDS011;18022;45.492;11.548;2022-07-03T03:36:26;4.95;;;3.42;;
31390;SDS011;18022;45.492;11.548;2022-07-03T03:38:54;5.57;;;3.40;;
31390;SDS011;18022;45.492;11.548;2022-07-03T03:41:20;10.77;;;3.72;;
31390;SDS011;18022;45.492;11.548;2022-07-03T03:43:46;7.10;;;3.63;;
31390;SDS011;18022;45.492;11.548;2022-07-03T03:46:12;11.60;;;3.78;;
31390;SDS011;18022;45.492;11.548;2022-07-03T03:48:39;4.57;;;3.20;;
31390;SDS011;18022;45.492;11.548;2022-07-03T03:51:05;11.80;;;3.70;;
31390;SDS011;18022;45.492;11.548;2022-07-03T03:53:32;4.80;;;3.42;;
31390;SDS011;18022;45.492;11.548;2022-07-03T03:56:08;6.53;;;3.50;;
31390;SDS011;18022;45.492;11.548;2022-07-03T03:58:36;5.28;;;3.50;;
31390;SDS011;18022;45.492;11.548;2022-07-03T04:01:03;6.28;;;3.30;;
31390;SDS011;18022;45.492;11.548;2022-07-03T04:03:30;6.78;;;3.80;;
31390;SDS011;18022;45.492;11.548;2022-07-03T04:05:57;8.90;;;3.78;;
31390;SDS011;18022;45.492;11.548;2022-07-03T04:08:24;7.72;;;3.05;;
31390;SDS011;18022;45.492;11.548;2022-07-03T04:10:51;4.20;;;3.13;;
31390;SDS011;18022;45.492;11.548;2022-07-03T04:13:17;5.13;;;3.08;;
31390;SDS011;18022;45.492;11.548;2022-07-03T04:15:46;5.63;;;3.42;;
31390;SDS011;18022;45.492;11.548;2022-07-03T04:18:14;3.97;;;3.17;;
31390;SDS011;18022;45.492;11.548;2022-07-03T04:20:40;6.43;;;3.63;;
31390;SDS011;18022;45.492;11.548;2022-07-03T04:23:06;4.80;;;3.50;;
31390;SDS011;18022;45.492;11.548;2022-07-03T04:25:31;6.18;;;4.07;;
31390;SDS011;18022;45.492;11.548;2022-07-03T04:27:57;8.48;;;3.70;;
31390;SDS011;18022;45.492;11.548;2022-07-03T04:30:23;4.13;;;3.20;;
31390;SDS011;18022;45.492;11.548;2022-07-03T04:32:49;9.80;;;3.92;;
31390;SDS011;18022;45.492;11.548;2022-07-03T04:35:15;4.22;;;3.10;;
31390;SDS011;18022;45.492;11.548;2022-07-03T04:37:41;6.75;;;3.83;;
31390;SDS011;18022;45.492;11.548;2022-07-03T04:40:08;5.22;;;3.78;;
31390;SDS011;18022;45.492;11.548;2022-07-03T04:42:34;7.82;;;3.80;;
31390;SDS011;18022;45.492;11.548;2022-07-03T04:45:00;6.03;;;3.50;;
31390;SDS011;18022;45.492;11.548;2022-07-03T04:47:26;6.32;;;3.50;;
31390;SDS011;18022;45.492;11.548;2022-07-03T04:49:52;6.82;;;3.65;;
31390;SDS011;18022;45.492;11.548;2022-07-03T04:52:18;8.60;;;3.38;;
31390;SDS011;18022;45.492;11.548;2022-07-03T04:54:44;10.98;;;4.35;;
31390;SDS011;18022;45.492;11.548;2022-07-03T04:57:09;6.38;;;3.55;;
31390;SDS011;18022;45.492;11.548;2022-07-03T04:59:35;6.65;;;3.75;;
31390;SDS011;18022;45.492;11.548;2022-07-03T05:02:01;6.53;;;3.35;;
31390;SDS011;18022;45.492;11.548;2022-07-03T05:04:27;6.55;;;3.28;;
31390;SDS011;18022;45.492;11.548;2022-07-03T05:06:53;6.40;;;3.55;;
31390;SDS011;18022;45.492;11.548;2022-07-03T05:09:19;5.05;;;3.45;;
31390;SDS011;18022;45.492;11.548;2022-07-03T05:11:45;6.93;;;3.47;;
31390;SDS011;18022;45.492;11.548;2022-07-03T05:14:11;7.60;;;3.58;;
31390;SDS011;18022;45.492;11.548;2022-07-03T05:16:37;6.63;;;3.55;;
31390;SDS011;18022;45.492;11.548;2022-07-03T05:19:03;4.80;;;3.22;;
31390;SDS011;18022;45.492;11.548;2022-07-03T05:21:29;5.07;;;3.67;;
31390;SDS011;18022;45.492;11.548;2022-07-03T05:23:54;5.28;;;3.40;;
31390;SDS011;18022;45.492;11.548;2022-07-03T05:26:20;7.47;;;3.72;;
31390;SDS011;18022;45.492;11.548;2022-07-03T05:28:46;5.72;;;3.40;;
31390;SDS011;18022;45.492;11.548;2022-07-03T05:31:12;8.90;;;3.95;;
31390;SDS011;18022;45.492;11.548;2022-07-03T05:33:37;6.75;;;3.53;;
31390;SDS011;18022;45.492;11.548;2022-07-03T05:36:03;6.15;;;3.72;;
31390;SDS011;18022;45.492;11.548;2022-07-03T05:38:30;5.32;;;3.40;;
31390;SDS011;18022;45.492;11.548;2022-07-03T05:41:15;5.05;;;3.20;;
31390;SDS011;18022;45.492;11.548;2022-07-03T05:43:40;7.35;;;4.00;;
31390;SDS011;18022;45.492;11.548;2022-07-03T05:46:06;6.28;;;3.30;;
31390;SDS011;18022;45.492;11.548;2022-07-03T05:48:32;4.78;;;3.63;;
31390;SDS011;18022;45.492;11.548;2022-07-03T05:50:58;7.43;;;3.70;;
31390;SDS011;18022;45.492;11.548;2022-07-03T05:53:23;5.90;;;3.80;;
31390;SDS011;18022;45.492;11.548;2022-07-03T05:55:49;6.68;;;3.58;;
31390;SDS011;18022;45.492;11.548;2022-07-03T05:58:15;6.65;;;3.97;;
31390;SDS011;18022;45.492;11.548;2022-07-03T06:00:41;3.25;;;2.95;;
31390;SDS011;18022;45.492;11.548;2022-07-03T06:03:07;6.95;;;3.80;;
31390;SDS011;18022;45.492;11.548;2022-07-03T06:05:33;4.88;;;3.33;;
31390;SDS011;18022;45.492;11.548;2022-07-03T06:07:59;7.93;;;3.90;;
31390;SDS011;18022;45.492;11.548;2022-07-03T06:10:25;6.88;;;3.22;;
31390;SDS011;18022;45.492;11.548;2022-07-03T06:12:51;5.70;;;3.13;;
31390;SDS011;18022;45.492;11.548;2022-07-03T06:15:17;6.45;;;3.35;;
31390;SDS011;18022;45.492;11.548;2022-07-03T06:17:43;8.90;;;3.67;;
31390;SDS011;18022;45.492;11.548;2022-07-03T06:20:11;6.03;;;3.88;;
31390;SDS011;18022;45.492;11.548;2022-07-03T06:22:37;5.20;;;3.88;;
31390;SDS011;18022;45.492;11.548;2022-07-03T06:25:04;6.90;;;3.97;;
31390;SDS011;18022;45.492;11.548;2022-07-03T06:27:30;6.82;;;3.67;;
31390;SDS011;18022;45.492;11.548;2022-07-03T06:29:56;7.22;;;3.67;;
31390;SDS011;18022;45.492;11.548;2022-07-03T06:32:22;9.50;;;4.15;;
31390;SDS011;18022;45.492;11.548;2022-07-03T06:34:48;8.02;;;3.58;;
31390;SDS011;18022;45.492;11.548;2022-07-03T06:37:14;3.95;;;2.80;;
31390;SDS011;18022;45.492;11.548;2022-07-03T06:39:39;5.13;;;2.90;;
31390;SDS011;18022;45.492;11.548;2022-07-03T06:42:05;5.75;;;2.72;;
31390;SDS011;18022;45.492;11.548;2022-07-03T06:44:31;5.18;;;2.42;;
31390;SDS011;18022;45.492;11.548;2022-07-03T06:46:57;6.23;;;2.17;;
31390;SDS011;18022;45.492;11.548;2022-07-03T06:49:23;3.28;;;2.05;;
31390;SDS011;18022;45.492;11.548;2022-07-03T06:51:49;3.63;;;1.80;;
31390;SDS011;18022;45.492;11.548;2022-07-03T06:54:15;7.68;;;3.03;;
31390;SDS011;18022;45.492;11.548;2022-07-03T06:56:41;1.83;;;1.70;;
31390;SDS011;18022;45.492;11.548;2022-07-03T06:59:09;2.42;;;2.00;;
31390;SDS011;18022;45.492;11.548;2022-07-03T07:01:35;3.55;;;2.10;;
31390;SDS011;18022;45.492;11.548;2022-07-03T07:04:00;6.18;;;2.25;;
31390;SDS011;18022;45.492;11.548;2022-07-03T07:06:27;1.87;;;1.77;;
31390;SDS011;18022;45.492;11.548;2022-07-03T07:08:53;5.75;;;2.10;;
31390;SDS011;18022;45.492;11.548;2022-07-03T07:11:19;5.32;;;1.90;;
31390;SDS011;18022;45.492;11.548;2022-07-03T07:13:45;6.63;;;2.05;;
31390;SDS011;18022;45.492;11.548;2022-07-03T07:16:11;3.67;;;2.33;;
31390;SDS011;18022;45.492;11.548;2022-07-03T07:18:39;3.33;;;2.50;;
31390;SDS011;18022;45.492;11.548;2022-07-03T07:21:05;3.28;;;2.28;;
31390;SDS011;18022;45.492;11.548;2022-07-03T07:23:31;3.80;;;1.95;;
31390;SDS011;18022;45.492;11.548;2022-07-03T07:25:57;9.55;;;2.00;;
31390;SDS011;18022;45.492;11.548;2022-07-03T07:28:23;4.47;;;1.95;;
31390;SDS011;18022;45.492;11.548;2022-07-03T07:30:48;8.27;;;2.20;;
31390;SDS011;18022;45.492;11.548;2022-07-03T07:33:14;3.50;;;2.08;;
31390;SDS011;18022;45.492;11.548;2022-07-03T07:35:40;2.83;;;1.85;;
31390;SDS011;18022;45.492;11.548;2022-07-03T07:38:06;3.25;;;2.00;;
31390;SDS011;18022;45.492;11.548;2022-07-03T07:40:31;9.68;;;1.73;;
31390;SDS011;18022;45.492;11.548;2022-07-03T07:42:57;3.67;;;1.80;;
31390;SDS011;18022;45.492;11.548;2022-07-03T07:45:23;1.98;;;1.70;;
31390;SDS011;18022;45.492;11.548;2022-07-03T07:47:48;3.05;;;1.90;;
31390;SDS011;18022;45.492;11.548;2022-07-03T07:50:14;5.07;;;2.10;;
31390;SDS011;18022;45.492;11.548;2022-07-03T07:52:40;5.20;;;1.60;;
31390;SDS011;18022;45.492;11.548;2022-07-03T07:55:06;2.97;;;1.70;;
31390;SDS011;18022;45.492;11.548;2022-07-03T07:57:35;2.92;;;1.70;;
31390;SDS011;18022;45.492;11.548;2022-07-03T08:00:12;3.95;;;1.65;;
31390;SDS011;18022;45.492;11.548;2022-07-03T08:02:39;1.85;;;1.65;;
31390;SDS011;18022;45.492;11.548;2022-07-03T08:05:25;4.38;;;1.75;;
31390;SDS011;18022;45.492;11.548;2022-07-03T08:08:10;1.70;;;1.50;;
31390;SDS011;18022;45.492;11.548;2022-07-03T08:10:38;8.13;;;1.80;;
31390;SDS011;18022;45.492;11.548;2022-07-03T08:13:05;9.57;;;1.60;;
31390;SDS011;18022;45.492;11.548;2022-07-03T08:15:31;2.23;;;1.60;;
31390;SDS011;18022;45.492;11.548;2022-07-03T08:17:57;6.93;;;1.63;;
31390;SDS011;18022;45.492;11.548;2022-07-03T08:20:23;4.43;;;1.77;;
31390;SDS011;18022;45.492;11.548;2022-07-03T08:22:49;2.92;;;1.65;;
31390;SDS011;18022;45.492;11.548;2022-07-03T08:25:15;3.67;;;1.88;;
31390;SDS011;18022;45.492;11.548;2022-07-03T08:27:41;3.25;;;1.52;;
31390;SDS011;18022;45.492;11.548;2022-07-03T08:30:07;3.00;;;1.60;;
31390;SDS011;18022;45.492;11.548;2022-07-03T08:32:33;3.08;;;1.60;;
31390;SDS011;18022;45.492;11.548;2022-07-03T08:34:58;2.78;;;1.30;;
31390;SDS011;18022;45.492;11.548;2022-07-03T08:37:25;4.40;;;1.48;;
31390;SDS011;18022;45.492;11.548;2022-07-03T08:39:51;4.65;;;1.75;;
31390;SDS011;18022;45.492;11.548;2022-07-03T08:42:17;5.22;;;1.75;;
31390;SDS011;18022;45.492;11.548;2022-07-03T08:44:44;4.00;;;1.67;;
31390;SDS011;18022;45.492;11.548;2022-07-03T08:47:12;4.95;;;1.90;;
31390;SDS011;18022;45.492;11.548;2022-07-03T08:49:39;4.53;;;2.03;;
31390;SDS011;18022;45.492;11.548;2022-07-03T08:52:06;2.92;;;1.90;;
31390;SDS011;18022;45.492;11.548;2022-07-03T08:54:34;13.98;;;2.53;;
31390;SDS011;18022;45.492;11.548;2022-07-03T08:57:00;5.05;;;1.60;;
31390;SDS011;18022;45.492;11.548;2022-07-03T08:59:28;3.20;;;2.03;;
31390;SDS011;18022;45.492;11.548;2022-07-03T09:02:02;6.70;;;1.80;;
31390;SDS011;18022;45.492;11.548;2022-07-03T09:04:29;7.15;;;2.20;;
31390;SDS011;18022;45.492;11.548;2022-07-03T09:06:56;4.97;;;2.20;;
31390;SDS011;18022;45.492;11.548;2022-07-03T09:09:23;7.97;;;2.30;;
31390;SDS011;18022;45.492;11.548;2022-07-03T09:11:49;6.65;;;1.85;;
31390;SDS011;18022;45.492;11.548;2022-07-03T09:14:16;7.53;;;2.45;;
31390;SDS011;18022;45.492;11.548;2022-07-03T09:16:42;6.82;;;2.20;;
31390;SDS011;18022;45.492;11.548;2022-07-03T09:19:08;4.20;;;2.05;;
31390;SDS011;18022;45.492;11.548;2022-07-03T09:21:37;3.13;;;2.17;;
31390;SDS011;18022;45.492;11.548;2022-07-03T09:24:05;7.50;;;1.70;;
31390;SDS011;18022;45.492;11.548;2022-07-03T09:26:32;4.75;;;2.10;;
31390;SDS011;18022;45.492;11.548;2022-07-03T09:28:58;4.32;;;1.83;;
31390;SDS011;18022;45.492;11.548;2022-07-03T09:31:25;4.65;;;1.77;;
31390;SDS011;18022;45.492;11.548;2022-07-03T09:36:23;5.50;;;1.90;;
31390;SDS011;18022;45.492;11.548;2022-07-03T09:39:10;10.05;;;2.13;;
31390;SDS011;18022;45.492;11.548;2022-07-03T09:41:58;2.70;;;1.63;;
31390;SDS011;18022;45.492;11.548;2022-07-03T09:44:40;4.13;;;2.20;;
31390;SDS011;18022;45.492;11.548;2022-07-03T09:47:14;4.88;;;2.15;;
31390;SDS011;18022;45.492;11.548;2022-07-03T09:54:54;4.32;;;2.08;;
31390;SDS011;18022;45.492;11.548;2022-07-03T09:57:21;4.43;;;1.85;;
31390;SDS011;18022;45.492;11.548;2022-07-03T09:59:52;6.35;;;2.35;;
31390;SDS011;18022;45.492;11.548;2022-07-03T10:05:24;5.07;;;2.05;;
31390;SDS011;18022;45.492;11.548;2022-07-03T10:07:59;4.57;;;1.85;;
31390;SDS011;18022;45.492;11.548;2022-07-03T10:10:28;5.22;;;2.15;;
31390;SDS011;18022;45.492;11.548;2022-07-03T10:12:57;4.97;;;2.55;;
31390;SDS011;18022;45.492;11.548;2022-07-03T10:15:24;2.70;;;2.40;;
31390;SDS011;18022;45.492;11.548;2022-07-03T10:17:52;4.95;;;2.03;;
31390;SDS011;18022;45.492;11.548;2022-07-03T10:20:25;6.45;;;2.53;;
31390;SDS011;18022;45.492;11.548;2022-07-03T10:22:51;6.50;;;2.30;;
31390;SDS011;18022;45.492;11.548;2022-07-03T10:25:17;6.13;;;2.80;;
31390;SDS011;18022;45.492;11.548;2022-07-03T10:27:44;4.65;;;2.08;;
31390;SDS011;18022;45.492;11.548;2022-07-03T10:30:12;5.00;;;1.83;;
31390;SDS011;18022;45.492;11.548;2022-07-03T10:32:40;4.28;;;2.13;;
31390;SDS011;18022;45.492;11.548;2022-07-03T10:35:09;3.92;;;1.88;;
31390;SDS011;18022;45.492;11.548;2022-07-03T10:37:58;5.50;;;1.85;;
31390;SDS011;18022;45.492;11.548;2022-07-03T10:40:40;6.07;;;2.63;;
31390;SDS011;18022;45.492;11.548;2022-07-03T10:43:43;6.57;;;2.60;;
31390;SDS011;18022;45.492;11.548;2022-07-03T10:46:29;6.07;;;1.80;;
31390;SDS011;18022;45.492;11.548;2022-07-03T10:51:54;4.90;;;1.90;;
31390;SDS011;18022;45.492;11.548;2022-07-03T11:02:21;4.43;;;2.20;;
31390;SDS011;18022;45.492;11.548;2022-07-03T11:20:34;2.28;;;2.08;;
31390;SDS011;18022;45.492;11.548;2022-07-03T11:25:43;8.30;;;2.20;;
31390;SDS011;18022;45.492;11.548;2022-07-03T11:36:49;5.47;;;2.10;;
31390;SDS011;18022;45.492;11.548;2022-07-03T11:41:23;6.55;;;2.53;;
31390;SDS011;18022;45.492;11.548;2022-07-03T11:43:51;4.78;;;2.38;;
31390;SDS011;18022;45.492;11.548;2022-07-03T11:46:19;5.28;;;2.17;;
31390;SDS011;18022;45.492;11.548;2022-07-03T11:48:47;7.82;;;2.47;;
31390;SDS011;18022;45.492;11.548;2022-07-03T11:51:13;6.72;;;2.25;;
31390;SDS011;18022;45.492;11.548;2022-07-03T11:56:06;4.53;;;2.30;;
31390;SDS011;18022;45.492;11.548;2022-07-03T12:01:27;6.53;;;2.42;;
31390;SDS011;18022;45.492;11.548;2022-07-03T12:04:09;3.85;;;2.05;;
31390;SDS011;18022;45.492;11.548;2022-07-03T12:06:53;9.48;;;3.20;;
31390;SDS011;18022;45.492;11.548;2022-07-03T12:09:22;4.20;;;2.13;;
31390;SDS011;18022;45.492;11.548;2022-07-03T12:17:00;7.18;;;2.35;;
31390;SDS011;18022;45.492;11.548;2022-07-03T12:19:26;10.38;;;3.20;;
31390;SDS011;18022;45.492;11.548;2022-07-03T12:21:52;4.75;;;2.45;;
31390;SDS011;18022;45.492;11.548;2022-07-03T12:24:18;12.40;;;2.53;;
31390;SDS011;18022;45.492;11.548;2022-07-03T12:26:43;8.80;;;3.10;;
31390;SDS011;18022;45.492;11.548;2022-07-03T12:29:10;8.50;;;2.40;;
31390;SDS011;18022;45.492;11.548;2022-07-03T12:31:41;7.68;;;2.85;;
31390;SDS011;18022;45.492;11.548;2022-07-03T12:34:10;4.45;;;2.58;;
31390;SDS011;18022;45.492;11.548;2022-07-03T12:36:36;5.15;;;2.50;;
31390;SDS011;18022;45.492;11.548;2022-07-03T12:39:02;4.55;;;2.47;;
31390;SDS011;18022;45.492;11.548;2022-07-03T12:41:29;5.68;;;3.00;;
31390;SDS011;18022;45.492;11.548;2022-07-03T12:43:55;11.18;;;2.75;;
31390;SDS011;18022;45.492;11.548;2022-07-03T12:49:11;10.35;;;3.17;;
31390;SDS011;18022;45.492;11.548;2022-07-03T12:54:09;6.53;;;2.60;;
31390;SDS011;18022;45.492;11.548;2022-07-03T12:56:36;5.97;;;2.85;;
31390;SDS011;18022;45.492;11.548;2022-07-03T12:59:03;6.85;;;2.47;;
31390;SDS011;18022;45.492;11.548;2022-07-03T13:02:00;6.10;;;2.33;;
31390;SDS011;18022;45.492;11.548;2022-07-03T13:04:33;6.20;;;2.90;;
31390;SDS011;18022;45.492;11.548;2022-07-03T13:07:01;3.72;;;2.50;;
31390;SDS011;18022;45.492;11.548;2022-07-03T13:09:32;5.30;;;2.88;;
31390;SDS011;18022;45.492;11.548;2022-07-03T13:11:59;5.95;;;2.42;;
31390;SDS011;18022;45.492;11.548;2022-07-03T13:14:25;5.13;;;2.42;;
31390;SDS011;18022;45.492;11.548;2022-07-03T13:16:52;4.13;;;2.70;;
31390;SDS011;18022;45.492;11.548;2022-07-03T13:19:26;8.13;;;2.65;;
31390;SDS011;18022;45.492;11.548;2022-07-03T13:21:54;5.50;;;2.60;;
31390;SDS011;18022;45.492;11.548;2022-07-03T13:24:21;8.35;;;2.83;;
31390;SDS011;18022;45.492;11.548;2022-07-03T13:26:48;8.52;;;2.92;;
31390;SDS011;18022;45.492;11.548;2022-07-03T13:31:40;8.20;;;2.97;;
31390;SDS011;18022;45.492;11.548;2022-07-03T13:34:06;7.55;;;2.40;;
31390;SDS011;18022;45.492;11.548;2022-07-03T13:36:32;2.70;;;2.50;;
31390;SDS011;18022;45.492;11.548;2022-07-03T13:38:58;4.05;;;2.67;;
31390;SDS011;18022;45.492;11.548;2022-07-03T13:41:25;3.63;;;2.67;;
31390;SDS011;18022;45.492;11.548;2022-07-03T13:43:51;7.73;;;2.60;;
31390;SDS011;18022;45.492;11.548;2022-07-03T13:46:18;7.47;;;2.88;;
31390;SDS011;18022;45.492;11.548;2022-07-03T13:48:46;6.40;;;3.15;;
31390;SDS011;18022;45.492;11.548;2022-07-03T13:51:13;6.70;;;2.50;;
31390;SDS011;18022;45.492;11.548;2022-07-03T13:53:39;6.88;;;3.17;;
31390;SDS011;18022;45.492;11.548;2022-07-03T13:56:05;5.15;;;2.72;;
31390;SDS011;18022;45.492;11.548;2022-07-03T13:58:31;3.67;;;2.58;;
31390;SDS011;18022;45.492;11.548;2022-07-03T14:00:57;4.18;;;2.35;;
31390;SDS011;18022;45.492;11.548;2022-07-03T14:03:24;2.88;;;2.33;;
31390;SDS011;18022;45.492;11.548;2022-07-03T14:05:49;3.60;;;2.40;;
31390;SDS011;18022;45.492;11.548;2022-07-03T14:08:17;3.20;;;2.30;;
31390;SDS011;18022;45.492;11.548;2022-07-03T14:10:46;7.18;;;3.17;;
31390;SDS011;18022;45.492;11.548;2022-07-03T14:13:12;3.90;;;2.80;;
31390;SDS011;18022;45.492;11.548;2022-07-03T14:15:38;8.10;;;2.72;;
31390;SDS011;18022;45.492;11.548;2022-07-03T14:20:46;6.85;;;2.60;;
31390;SDS011;18022;45.492;11.548;2022-07-03T14:23:12;3.38;;;2.40;;
31390;SDS011;18022;45.492;11.548;2022-07-03T14:25:38;11.00;;;2.83;;
31390;SDS011;18022;45.492;11.548;2022-07-03T14:28:04;7.80;;;2.70;;
31390;SDS011;18022;45.492;11.548;2022-07-03T14:30:48;9.35;;;2.58;;
31390;SDS011;18022;45.492;11.548;2022-07-03T14:33:33;6.32;;;2.63;;
31390;SDS011;18022;45.492;11.548;2022-07-03T14:35:59;4.65;;;2.47;;
31390;SDS011;18022;45.492;11.548;2022-07-03T14:38:25;3.28;;;2.55;;
31390;SDS011;18022;45.492;11.548;2022-07-03T14:40:50;5.78;;;2.78;;
31390;SDS011;18022;45.492;11.548;2022-07-03T14:43:17;4.97;;;2.97;;
31390;SDS011;18022;45.492;11.548;2022-07-03T14:45:43;6.47;;;3.13;;
31390;SDS011;18022;45.492;11.548;2022-07-03T14:48:08;3.58;;;2.50;;
31390;SDS011;18022;45.492;11.548;2022-07-03T14:50:34;5.78;;;2.97;;
31390;SDS011;18022;45.492;11.548;2022-07-03T14:53:00;5.10;;;2.53;;
31390;SDS011;18022;45.492;11.548;2022-07-03T14:55:28;6.68;;;2.75;;
31390;SDS011;18022;45.492;11.548;2022-07-03T14:58:19;6.78;;;2.90;;
31390;SDS011;18022;45.492;11.548;2022-07-03T15:00:52;6.80;;;2.55;;
31390;SDS011;18022;45.492;11.548;2022-07-03T15:03:42;3.38;;;2.40;;
31390;SDS011;18022;45.492;11.548;2022-07-03T15:06:11;6.88;;;2.50;;
31390;SDS011;18022;45.492;11.548;2022-07-03T15:08:43;7.47;;;2.50;;
31390;SDS011;18022;45.492;11.548;2022-07-03T15:14:22;3.08;;;2.47;;
31390;SDS011;18022;45.492;11.548;2022-07-03T15:16:50;6.60;;;2.33;;
31390;SDS011;18022;45.492;11.548;2022-07-03T15:19:18;3.30;;;2.30;;
31390;SDS011;18022;45.492;11.548;2022-07-03T15:21:48;3.13;;;2.35;;
31390;SDS011;18022;45.492;11.548;2022-07-03T15:24:14;5.38;;;2.50;;
31390;SDS011;18022;45.492;11.548;2022-07-03T15:26:42;3.72;;;2.40;;
31390;SDS011;18022;45.492;11.548;2022-07-03T15:29:12;6.68;;;2.50;;
31390;SDS011;18022;45.492;11.548;2022-07-03T15:31:39;5.82;;;2.55;;
31390;SDS011;18022;45.492;11.548;2022-07-03T15:34:05;9.10;;;2.83;;
31390;SDS011;18022;45.492;11.548;2022-07-03T15:36:38;4.13;;;2.50;;
31390;SDS011;18022;45.492;11.548;2022-07-03T15:39:13;5.32;;;2.38;;
31390;SDS011;18022;45.492;11.548;2022-07-03T15:44:46;5.57;;;2.17;;
31390;SDS011;18022;45.492;11.548;2022-07-03T15:50:05;5.72;;;2.53;;
31390;SDS011;18022;45.492;11.548;2022-07-03T15:52:39;5.53;;;2.70;;
31390;SDS011;18022;45.492;11.548;2022-07-03T15:55:06;4.47;;;2.20;;
31390;SDS011;18022;45.492;11.548;2022-07-03T16:00:14;5.85;;;2.30;;
31390;SDS011;18022;45.492;11.548;2022-07-03T16:05:14;8.27;;;2.72;;
31390;SDS011;18022;45.492;11.548;2022-07-03T16:07:44;4.55;;;2.30;;
31390;SDS011;18022;45.492;11.548;2022-07-03T16:10:11;4.60;;;2.30;;
31390;SDS011;18022;45.492;11.548;2022-07-03T16:12:38;4.65;;;2.40;;
31390;SDS011;18022;45.492;11.548;2022-07-03T16:15:06;5.75;;;2.40;;
31390;SDS011;18022;45.492;11.548;2022-07-03T16:17:34;7.10;;;2.90;;
31390;SDS011;18022;45.492;11.548;2022-07-03T16:20:01;4.53;;;2.33;;
31390;SDS011;18022;45.492;11.548;2022-07-03T16:22:28;8.70;;;2.78;;
31390;SDS011;18022;45.492;11.548;2022-07-03T16:24:57;6.22;;;2.10;;
31390;SDS011;18022;45.492;11.548;2022-07-03T16:27:23;6.72;;;2.47;;
31390;SDS011;18022;45.492;11.548;2022-07-03T16:29:49;5.35;;;2.33;;
31390;SDS011;18022;45.492;11.548;2022-07-03T16:32:19;4.07;;;1.95;;
31390;SDS011;18022;45.492;11.548;2022-07-03T16:40:18;10.10;;;2.90;;
31390;SDS011;18022;45.492;11.548;2022-07-03T16:42:46;5.40;;;2.40;;
31390;SDS011;18022;45.492;11.548;2022-07-03T16:45:14;6.25;;;2.60;;
31390;SDS011;18022;45.492;11.548;2022-07-03T16:47:48;2.85;;;2.50;;